sensor_id;sensor_type;location;lat;lon;timestamp;P1;durP1;ratioP1;P2;durP2;ratioP2
7195;SDS011;3639;51.308;5.624;2023-07-09T00:02:03;13.05;;;9.10;;
7195;SDS011;3639;51.308;5.624;2023-07-09T00:04:29;12.82;;;8.50;;
7195;SDS011;3639;51.308;5.624;2023-07-09T00:06:55;14.25;;;9.43;;
7195;SDS011;3639;51.308;5.624;2023-07-09T00:09:25;14.60;;;10.23;;
7195;SDS011;3639;51.308;5.624;2023-07-09T00:11:51;13.90;;;9.27;;
7195;SDS011;3639;51.308;5.624;2023-07-09T00:14:17;15.48;;;9.30;;
7195;SDS011;3639;51.308;5.624;2023-07-09T00:16:43;15.45;;;8.98;;
7195;SDS011;3639;51.308;5.624;2023-07-09T00:19:15;13.43;;;9.18;;
7195;SDS011;3639;51.308;5.624;2023-07-09T00:21:43;14.70;;;9.35;;
7195;SDS011;3639;51.308;5.624;2023-07-09T00:24:13;13.73;;;9.00;;
7195;SDS011;3639;51.308;5.624;2023-07-09T00:26:39;13.00;;;9.63;;
7195;SDS011;3639;51.308;5.624;2023-07-09T00:29:17;15.88;;;9.52;;
7195;SDS011;3639;51.308;5.624;2023-07-09T00:31:49;16.38;;;10.23;;
7195;SDS011;3639;51.308;5.624;2023-07-09T00:34:15;15.57;;;9.75;;
7195;SDS011;3639;51.308;5.624;2023-07-09T00:36:46;14.02;;;8.88;;
7195;SDS011;3639;51.308;5.624;2023-07-09T00:39:15;16.95;;;8.95;;
7195;SDS011;3639;51.308;5.624;2023-07-09T00:41:43;14.23;;;9.38;;
7195;SDS011;3639;51.308;5.624;2023-07-09T00:49:34;13.13;;;9.97;;
7195;SDS011;3639;51.308;5.624;2023-07-09T00:52:27;14.50;;;9.27;;
7195;SDS011;3639;51.308;5.624;2023-07-09T00:55:02;13.55;;;8.90;;
7195;SDS011;3639;51.308;5.624;2023-07-09T00:57:34;16.07;;;9.43;;
7195;SDS011;3639;51.308;5.624;2023-07-09T01:00:05;15.90;;;9.83;;
7195;SDS011;3639;51.308;5.624;2023-07-09T01:02:37;13.23;;;9.38;;
7195;SDS011;3639;51.308;5.624;2023-07-09T01:05:04;16.27;;;9.10;;
7195;SDS011;3639;51.308;5.624;2023-07-09T01:07:32;16.17;;;9.03;;
7195;SDS011;3639;51.308;5.624;2023-07-09T01:09:58;16.50;;;9.13;;
7195;SDS011;3639;51.308;5.624;2023-07-09T01:12:23;13.50;;;8.73;;
7195;SDS011;3639;51.308;5.624;2023-07-09T01:14:50;14.97;;;9.03;;
7195;SDS011;3639;51.308;5.624;2023-07-09T01:17:20;12.53;;;8.03;;
7195;SDS011;3639;51.308;5.624;2023-07-09T01:19:48;14.80;;;9.17;;
7195;SDS011;3639;51.308;5.624;2023-07-09T01:22:16;16.43;;;9.47;;
7195;SDS011;3639;51.308;5.624;2023-07-09T01:27:27;15.10;;;9.43;;
7195;SDS011;3639;51.308;5.624;2023-07-09T01:29:55;15.07;;;9.27;;
7195;SDS011;3639;51.308;5.624;2023-07-09T01:32:22;15.43;;;9.70;;
7195;SDS011;3639;51.308;5.624;2023-07-09T01:34:50;12.73;;;9.37;;
7195;SDS011;3639;51.308;5.624;2023-07-09T01:37:20;17.03;;;10.07;;
7195;SDS011;3639;51.308;5.624;2023-07-09T01:39:49;19.70;;;9.93;;
7195;SDS011;3639;51.308;5.624;2023-07-09T01:42:16;15.97;;;9.67;;
7195;SDS011;3639;51.308;5.624;2023-07-09T01:44:43;15.57;;;8.60;;
7195;SDS011;3639;51.308;5.624;2023-07-09T01:47:11;14.37;;;9.27;;
7195;SDS011;3639;51.308;5.624;2023-07-09T01:49:36;17.30;;;10.27;;
7195;SDS011;3639;51.308;5.624;2023-07-09T01:52:05;12.70;;;9.53;;
7195;SDS011;3639;51.308;5.624;2023-07-09T01:54:33;15.90;;;9.93;;
7195;SDS011;3639;51.308;5.624;2023-07-09T01:57:13;14.77;;;9.40;;
7195;SDS011;3639;51.308;5.624;2023-07-09T01:59:40;14.20;;;9.40;;
7195;SDS011;3639;51.308;5.624;2023-07-09T02:02:09;14.70;;;9.50;;
7195;SDS011;3639;51.308;5.624;2023-07-09T02:04:40;12.93;;;9.07;;
7195;SDS011;3639;51.308;5.624;2023-07-09T02:07:07;14.23;;;9.77;;
7195;SDS011;3639;51.308;5.624;2023-07-09T02:09:33;13.33;;;9.23;;
7195;SDS011;3639;51.308;5.624;2023-07-09T02:11:59;17.53;;;9.40;;
7195;SDS011;3639;51.308;5.624;2023-07-09T02:14:24;15.03;;;9.70;;
7195;SDS011;3639;51.308;5.624;2023-07-09T02:16:50;13.80;;;9.67;;
7195;SDS011;3639;51.308;5.624;2023-07-09T02:19:16;14.10;;;9.37;;
7195;SDS011;3639;51.308;5.624;2023-07-09T02:21:41;14.80;;;9.80;;
7195;SDS011;3639;51.308;5.624;2023-07-09T02:24:07;13.73;;;9.43;;
7195;SDS011;3639;51.308;5.624;2023-07-09T02:26:33;14.67;;;9.30;;
7195;SDS011;3639;51.308;5.624;2023-07-09T02:28:58;14.37;;;9.33;;
7195;SDS011;3639;51.308;5.624;2023-07-09T02:31:24;13.30;;;9.00;;
7195;SDS011;3639;51.308;5.624;2023-07-09T02:33:49;14.17;;;9.50;;
7195;SDS011;3639;51.308;5.624;2023-07-09T02:36:15;15.47;;;9.80;;
7195;SDS011;3639;51.308;5.624;2023-07-09T02:38:41;17.37;;;9.60;;
7195;SDS011;3639;51.308;5.624;2023-07-09T02:41:07;15.63;;;9.93;;
7195;SDS011;3639;51.308;5.624;2023-07-09T02:43:32;15.57;;;9.20;;
7195;SDS011;3639;51.308;5.624;2023-07-09T02:45:58;15.67;;;10.17;;
7195;SDS011;3639;51.308;5.624;2023-07-09T02:48:23;12.57;;;8.77;;
7195;SDS011;3639;51.308;5.624;2023-07-09T02:50:49;13.70;;;9.27;;
7195;SDS011;3639;51.308;5.624;2023-07-09T02:53:15;15.83;;;10.13;;
7195;SDS011;3639;51.308;5.624;2023-07-09T02:55:40;15.60;;;9.50;;
7195;SDS011;3639;51.308;5.624;2023-07-09T02:58:06;13.33;;;9.60;;
7195;SDS011;3639;51.308;5.624;2023-07-09T03:00:31;15.00;;;8.43;;
7195;SDS011;3639;51.308;5.624;2023-07-09T03:02:57;14.57;;;9.70;;
7195;SDS011;3639;51.308;5.624;2023-07-09T03:05:22;15.00;;;9.03;;
7195;SDS011;3639;51.308;5.624;2023-07-09T03:07:48;12.13;;;8.53;;
7195;SDS011;3639;51.308;5.624;2023-07-09T03:10:14;12.73;;;8.93;;
7195;SDS011;3639;51.308;5.624;2023-07-09T03:12:39;16.27;;;9.83;;
7195;SDS011;3639;51.308;5.624;2023-07-09T03:15:05;15.00;;;9.57;;
7195;SDS011;3639;51.308;5.624;2023-07-09T03:17:31;13.37;;;9.27;;
7195;SDS011;3639;51.308;5.624;2023-07-09T03:19:56;17.10;;;10.20;;
7195;SDS011;3639;51.308;5.624;2023-07-09T03:22:22;16.03;;;9.87;;
7195;SDS011;3639;51.308;5.624;2023-07-09T03:24:47;13.23;;;9.10;;
7195;SDS011;3639;51.308;5.624;2023-07-09T03:27:13;13.23;;;9.00;;
7195;SDS011;3639;51.308;5.624;2023-07-09T03:29:39;12.83;;;9.57;;
7195;SDS011;3639;51.308;5.624;2023-07-09T03:32:04;15.70;;;10.00;;
7195;SDS011;3639;51.308;5.624;2023-07-09T03:34:30;18.77;;;10.67;;
7195;SDS011;3639;51.308;5.624;2023-07-09T03:36:56;17.60;;;9.87;;
7195;SDS011;3639;51.308;5.624;2023-07-09T03:39:21;16.53;;;9.97;;
7195;SDS011;3639;51.308;5.624;2023-07-09T03:41:47;12.30;;;9.23;;
7195;SDS011;3639;51.308;5.624;2023-07-09T03:44:13;14.10;;;9.87;;
7195;SDS011;3639;51.308;5.624;2023-07-09T03:46:38;14.03;;;9.63;;
7195;SDS011;3639;51.308;5.624;2023-07-09T03:49:04;16.50;;;10.13;;
7195;SDS011;3639;51.308;5.624;2023-07-09T03:51:29;14.37;;;9.93;;
7195;SDS011;3639;51.308;5.624;2023-07-09T03:53:55;16.20;;;10.30;;
7195;SDS011;3639;51.308;5.624;2023-07-09T03:56:21;13.57;;;9.47;;
7195;SDS011;3639;51.308;5.624;2023-07-09T03:58:46;18.70;;;9.60;;
7195;SDS011;3639;51.308;5.624;2023-07-09T04:01:12;13.77;;;9.33;;
7195;SDS011;3639;51.308;5.624;2023-07-09T04:03:37;15.90;;;9.27;;
7195;SDS011;3639;51.308;5.624;2023-07-09T04:06:03;14.13;;;9.43;;
7195;SDS011;3639;51.308;5.624;2023-07-09T04:08:28;16.53;;;10.13;;
7195;SDS011;3639;51.308;5.624;2023-07-09T04:10:55;13.00;;;9.40;;
7195;SDS011;3639;51.308;5.624;2023-07-09T04:13:24;13.27;;;8.73;;
7195;SDS011;3639;51.308;5.624;2023-07-09T04:15:52;15.83;;;9.77;;
7195;SDS011;3639;51.308;5.624;2023-07-09T04:18:17;14.83;;;8.37;;
7195;SDS011;3639;51.308;5.624;2023-07-09T04:20:43;12.53;;;8.53;;
7195;SDS011;3639;51.308;5.624;2023-07-09T04:23:12;15.73;;;9.43;;
7195;SDS011;3639;51.308;5.624;2023-07-09T04:25:38;13.63;;;8.80;;
7195;SDS011;3639;51.308;5.624;2023-07-09T04:28:04;15.07;;;9.20;;
7195;SDS011;3639;51.308;5.624;2023-07-09T04:30:30;12.63;;;9.27;;
7195;SDS011;3639;51.308;5.624;2023-07-09T04:32:57;13.40;;;9.23;;
7195;SDS011;3639;51.308;5.624;2023-07-09T04:35:22;13.20;;;9.17;;
7195;SDS011;3639;51.308;5.624;2023-07-09T04:37:48;18.70;;;9.67;;
7195;SDS011;3639;51.308;5.624;2023-07-09T04:40:14;15.40;;;9.13;;
7195;SDS011;3639;51.308;5.624;2023-07-09T04:42:42;14.57;;;9.87;;
7195;SDS011;3639;51.308;5.624;2023-07-09T04:45:08;13.40;;;8.90;;
7195;SDS011;3639;51.308;5.624;2023-07-09T04:47:36;13.47;;;9.00;;
7195;SDS011;3639;51.308;5.624;2023-07-09T04:50:03;13.23;;;9.03;;
7195;SDS011;3639;51.308;5.624;2023-07-09T04:52:29;15.80;;;9.20;;
7195;SDS011;3639;51.308;5.624;2023-07-09T04:54:55;16.70;;;9.83;;
7195;SDS011;3639;51.308;5.624;2023-07-09T04:57:21;15.23;;;9.93;;
7195;SDS011;3639;51.308;5.624;2023-07-09T04:59:47;15.67;;;10.30;;
7195;SDS011;3639;51.308;5.624;2023-07-09T05:02:14;16.47;;;10.50;;
7195;SDS011;3639;51.308;5.624;2023-07-09T05:04:40;18.57;;;10.10;;
7195;SDS011;3639;51.308;5.624;2023-07-09T05:07:05;18.07;;;10.73;;
7195;SDS011;3639;51.308;5.624;2023-07-09T05:09:31;18.87;;;11.10;;
7195;SDS011;3639;51.308;5.624;2023-07-09T05:11:58;14.93;;;9.83;;
7195;SDS011;3639;51.308;5.624;2023-07-09T05:14:25;14.43;;;9.43;;
7195;SDS011;3639;51.308;5.624;2023-07-09T05:16:54;15.00;;;10.00;;
7195;SDS011;3639;51.308;5.624;2023-07-09T05:19:20;17.80;;;11.10;;
7195;SDS011;3639;51.308;5.624;2023-07-09T05:21:45;15.60;;;8.87;;
7195;SDS011;3639;51.308;5.624;2023-07-09T05:24:11;14.93;;;10.25;;
7195;SDS011;3639;51.308;5.624;2023-07-09T05:26:36;15.70;;;9.33;;
7195;SDS011;3639;51.308;5.624;2023-07-09T05:29:03;13.18;;;9.95;;
7195;SDS011;3639;51.308;5.624;2023-07-09T05:31:30;13.77;;;9.60;;
7195;SDS011;3639;51.308;5.624;2023-07-09T05:33:56;13.18;;;8.27;;
7195;SDS011;3639;51.308;5.624;2023-07-09T05:36:21;13.27;;;8.52;;
7195;SDS011;3639;51.308;5.624;2023-07-09T05:38:47;12.27;;;7.80;;
7195;SDS011;3639;51.308;5.624;2023-07-09T05:41:13;15.00;;;8.38;;
7195;SDS011;3639;51.308;5.624;2023-07-09T05:43:41;11.45;;;7.38;;
7195;SDS011;3639;51.308;5.624;2023-07-09T05:46:09;12.38;;;8.13;;
7195;SDS011;3639;51.308;5.624;2023-07-09T05:48:35;12.20;;;7.38;;
7195;SDS011;3639;51.308;5.624;2023-07-09T05:51:01;10.98;;;7.50;;
7195;SDS011;3639;51.308;5.624;2023-07-09T05:53:26;11.20;;;7.47;;
7195;SDS011;3639;51.308;5.624;2023-07-09T05:55:52;12.05;;;7.50;;
7195;SDS011;3639;51.308;5.624;2023-07-09T05:58:21;11.75;;;7.18;;
7195;SDS011;3639;51.308;5.624;2023-07-09T06:00:51;11.02;;;7.10;;
7195;SDS011;3639;51.308;5.624;2023-07-09T06:03:18;10.95;;;7.35;;
7195;SDS011;3639;51.308;5.624;2023-07-09T06:05:45;11.25;;;7.40;;
7195;SDS011;3639;51.308;5.624;2023-07-09T06:08:10;9.05;;;6.00;;
7195;SDS011;3639;51.308;5.624;2023-07-09T06:10:37;10.35;;;6.70;;
7195;SDS011;3639;51.308;5.624;2023-07-09T06:13:05;11.55;;;6.72;;
7195;SDS011;3639;51.308;5.624;2023-07-09T06:15:31;9.35;;;6.25;;
7195;SDS011;3639;51.308;5.624;2023-07-09T06:17:57;9.68;;;6.80;;
7195;SDS011;3639;51.308;5.624;2023-07-09T06:20:22;10.23;;;6.57;;
7195;SDS011;3639;51.308;5.624;2023-07-09T06:22:48;15.20;;;6.63;;
7195;SDS011;3639;51.308;5.624;2023-07-09T06:25:13;9.98;;;6.40;;
7195;SDS011;3639;51.308;5.624;2023-07-09T06:27:39;9.52;;;5.78;;
7195;SDS011;3639;51.308;5.624;2023-07-09T06:30:05;8.43;;;5.50;;
7195;SDS011;3639;51.308;5.624;2023-07-09T06:32:31;9.95;;;6.05;;
7195;SDS011;3639;51.308;5.624;2023-07-09T06:34:56;8.57;;;6.15;;
7195;SDS011;3639;51.308;5.624;2023-07-09T06:37:22;7.05;;;5.28;;
7195;SDS011;3639;51.308;5.624;2023-07-09T06:39:47;9.82;;;5.95;;
7195;SDS011;3639;51.308;5.624;2023-07-09T06:42:13;9.75;;;5.97;;
7195;SDS011;3639;51.308;5.624;2023-07-09T06:44:39;9.48;;;6.03;;
7195;SDS011;3639;51.308;5.624;2023-07-09T06:47:04;8.50;;;5.47;;
7195;SDS011;3639;51.308;5.624;2023-07-09T06:49:30;7.72;;;5.68;;
7195;SDS011;3639;51.308;5.624;2023-07-09T06:51:56;10.23;;;5.22;;
7195;SDS011;3639;51.308;5.624;2023-07-09T06:54:21;7.68;;;5.35;;
7195;SDS011;3639;51.308;5.624;2023-07-09T06:56:47;8.25;;;4.93;;
7195;SDS011;3639;51.308;5.624;2023-07-09T06:59:12;7.93;;;5.07;;
7195;SDS011;3639;51.308;5.624;2023-07-09T07:01:38;9.93;;;5.45;;
7195;SDS011;3639;51.308;5.624;2023-07-09T07:04:04;8.52;;;5.53;;
7195;SDS011;3639;51.308;5.624;2023-07-09T07:06:29;7.05;;;4.63;;
7195;SDS011;3639;51.308;5.624;2023-07-09T07:08:56;7.75;;;4.43;;
7195;SDS011;3639;51.308;5.624;2023-07-09T07:11:21;8.73;;;4.57;;
7195;SDS011;3639;51.308;5.624;2023-07-09T07:13:47;9.07;;;4.10;;
7195;SDS011;3639;51.308;5.624;2023-07-09T07:16:16;6.70;;;4.13;;
7195;SDS011;3639;51.308;5.624;2023-07-09T07:18:42;6.00;;;4.03;;
7195;SDS011;3639;51.308;5.624;2023-07-09T07:21:07;7.32;;;4.70;;
7195;SDS011;3639;51.308;5.624;2023-07-09T07:23:33;5.45;;;4.20;;
7195;SDS011;3639;51.308;5.624;2023-07-09T07:25:59;6.07;;;4.25;;
7195;SDS011;3639;51.308;5.624;2023-07-09T07:28:24;10.80;;;4.13;;
7195;SDS011;3639;51.308;5.624;2023-07-09T07:31:06;5.70;;;4.10;;
7195;SDS011;3639;51.308;5.624;2023-07-09T07:33:33;7.40;;;4.20;;
7195;SDS011;3639;51.308;5.624;2023-07-09T07:35:59;8.38;;;4.63;;
7195;SDS011;3639;51.308;5.624;2023-07-09T07:38:25;6.70;;;4.20;;
7195;SDS011;3639;51.308;5.624;2023-07-09T07:40:50;5.78;;;4.35;;
7195;SDS011;3639;51.308;5.624;2023-07-09T07:43:16;6.28;;;4.68;;
7195;SDS011;3639;51.308;5.624;2023-07-09T07:45:42;5.75;;;4.20;;
7195;SDS011;3639;51.308;5.624;2023-07-09T07:48:09;9.88;;;4.82;;
7195;SDS011;3639;51.308;5.624;2023-07-09T07:50:35;6.15;;;3.88;;
7195;SDS011;3639;51.308;5.624;2023-07-09T07:53:01;7.95;;;4.22;;
7195;SDS011;3639;51.308;5.624;2023-07-09T07:55:27;8.35;;;4.30;;
7195;SDS011;3639;51.308;5.624;2023-07-09T07:57:52;7.70;;;4.28;;
7195;SDS011;3639;51.308;5.624;2023-07-09T08:00:18;6.70;;;4.20;;
7195;SDS011;3639;51.308;5.624;2023-07-09T08:02:44;6.15;;;4.10;;
7195;SDS011;3639;51.308;5.624;2023-07-09T08:05:10;8.02;;;4.22;;
7195;SDS011;3639;51.308;5.624;2023-07-09T08:07:35;7.18;;;4.72;;
7195;SDS011;3639;51.308;5.624;2023-07-09T08:10:01;6.65;;;4.38;;
7195;SDS011;3639;51.308;5.624;2023-07-09T08:12:27;5.65;;;3.72;;
7195;SDS011;3639;51.308;5.624;2023-07-09T08:14:53;5.90;;;4.28;;
7195;SDS011;3639;51.308;5.624;2023-07-09T08:17:19;6.18;;;4.15;;
7195;SDS011;3639;51.308;5.624;2023-07-09T08:19:46;6.47;;;4.20;;
7195;SDS011;3639;51.308;5.624;2023-07-09T08:22:13;8.77;;;5.20;;
7195;SDS011;3639;51.308;5.624;2023-07-09T08:24:40;5.00;;;4.10;;
7195;SDS011;3639;51.308;5.624;2023-07-09T08:27:06;5.95;;;4.25;;
7195;SDS011;3639;51.308;5.624;2023-07-09T08:29:32;6.22;;;4.38;;
7195;SDS011;3639;51.308;5.624;2023-07-09T08:31:58;6.53;;;4.82;;
7195;SDS011;3639;51.308;5.624;2023-07-09T08:34:24;7.28;;;4.43;;
7195;SDS011;3639;51.308;5.624;2023-07-09T08:36:49;6.65;;;4.75;;
7195;SDS011;3639;51.308;5.624;2023-07-09T08:39:15;5.70;;;4.15;;
7195;SDS011;3639;51.308;5.624;2023-07-09T08:41:45;8.60;;;4.85;;
7195;SDS011;3639;51.308;5.624;2023-07-09T08:47:16;6.35;;;4.47;;
7195;SDS011;3639;51.308;5.624;2023-07-09T08:49:58;7.97;;;4.85;;
7195;SDS011;3639;51.308;5.624;2023-07-09T08:55:03;7.28;;;4.78;;
7195;SDS011;3639;51.308;5.624;2023-07-09T08:57:39;5.65;;;4.30;;
7195;SDS011;3639;51.308;5.624;2023-07-09T09:00:13;9.43;;;6.20;;
7195;SDS011;3639;51.308;5.624;2023-07-09T09:03:29;7.72;;;5.18;;
7195;SDS011;3639;51.308;5.624;2023-07-09T09:05:41;7.97;;;5.88;;
7195;SDS011;3639;51.308;5.624;2023-07-09T09:08:12;8.13;;;4.93;;
7195;SDS011;3639;51.308;5.624;2023-07-09T09:10:49;6.15;;;4.55;;
7195;SDS011;3639;51.308;5.624;2023-07-09T09:13:25;7.80;;;4.82;;
7195;SDS011;3639;51.308;5.624;2023-07-09T09:15:55;8.55;;;4.68;;
7195;SDS011;3639;51.308;5.624;2023-07-09T09:18:26;6.78;;;5.00;;
7195;SDS011;3639;51.308;5.624;2023-07-09T09:21:36;6.97;;;5.10;;
7195;SDS011;3639;51.308;5.624;2023-07-09T09:23:54;6.63;;;5.00;;
7195;SDS011;3639;51.308;5.624;2023-07-09T09:26:31;9.02;;;4.78;;
7195;SDS011;3639;51.308;5.624;2023-07-09T09:29:07;7.15;;;5.00;;
7195;SDS011;3639;51.308;5.624;2023-07-09T09:31:37;7.82;;;4.53;;
7195;SDS011;3639;51.308;5.624;2023-07-09T09:34:05;6.80;;;4.70;;
7195;SDS011;3639;51.308;5.624;2023-07-09T09:36:42;10.27;;;5.25;;
7195;SDS011;3639;51.308;5.624;2023-07-09T09:39:11;8.50;;;5.15;;
7195;SDS011;3639;51.308;5.624;2023-07-09T09:41:39;7.80;;;4.90;;
7195;SDS011;3639;51.308;5.624;2023-07-09T09:44:25;6.60;;;4.78;;
7195;SDS011;3639;51.308;5.624;2023-07-09T09:46:57;5.45;;;4.63;;
7195;SDS011;3639;51.308;5.624;2023-07-09T09:49:23;6.30;;;4.30;;
7195;SDS011;3639;51.308;5.624;2023-07-09T09:51:48;5.88;;;4.18;;
7195;SDS011;3639;51.308;5.624;2023-07-09T09:54:20;5.57;;;4.30;;
7195;SDS011;3639;51.308;5.624;2023-07-09T09:56:49;5.53;;;3.45;;
7195;SDS011;3639;51.308;5.624;2023-07-09T09:59:19;5.88;;;4.43;;
7195;SDS011;3639;51.308;5.624;2023-07-09T10:01:58;5.45;;;3.95;;
7195;SDS011;3639;51.308;5.624;2023-07-09T10:04:26;4.47;;;3.80;;
7195;SDS011;3639;51.308;5.624;2023-07-09T10:07:05;4.85;;;3.83;;
7195;SDS011;3639;51.308;5.624;2023-07-09T10:17:33;4.95;;;4.00;;
7195;SDS011;3639;51.308;5.624;2023-07-09T10:23:13;5.10;;;3.80;;
7195;SDS011;3639;51.308;5.624;2023-07-09T10:25:42;6.82;;;4.32;;
7195;SDS011;3639;51.308;5.624;2023-07-09T10:28:44;6.78;;;4.30;;
7195;SDS011;3639;51.308;5.624;2023-07-09T10:31:26;5.85;;;4.22;;
7195;SDS011;3639;51.308;5.624;2023-07-09T10:40:13;8.38;;;4.63;;
7195;SDS011;3639;51.308;5.624;2023-07-09T10:42:50;4.97;;;3.92;;
7195;SDS011;3639;51.308;5.624;2023-07-09T10:45:20;5.40;;;3.50;;
7195;SDS011;3639;51.308;5.624;2023-07-09T10:47:53;5.72;;;4.03;;
7195;SDS011;3639;51.308;5.624;2023-07-09T10:50:31;6.68;;;4.00;;
7195;SDS011;3639;51.308;5.624;2023-07-09T10:53:02;4.03;;;3.05;;
7195;SDS011;3639;51.308;5.624;2023-07-09T10:55:47;3.65;;;2.85;;
7195;SDS011;3639;51.308;5.624;2023-07-09T10:58:35;4.70;;;3.30;;
7195;SDS011;3639;51.308;5.624;2023-07-09T11:01:12;4.53;;;3.30;;
7195;SDS011;3639;51.308;5.624;2023-07-09T11:03:42;4.95;;;3.15;;
7195;SDS011;3639;51.308;5.624;2023-07-09T11:06:25;4.97;;;3.17;;
7195;SDS011;3639;51.308;5.624;2023-07-09T11:09:01;6.20;;;3.20;;
7195;SDS011;3639;51.308;5.624;2023-07-09T11:11:40;5.03;;;3.03;;
7195;SDS011;3639;51.308;5.624;2023-07-09T11:14:13;4.10;;;2.53;;
7195;SDS011;3639;51.308;5.624;2023-07-09T11:16:51;4.68;;;3.03;;
7195;SDS011;3639;51.308;5.624;2023-07-09T11:19:19;6.05;;;3.08;;
7195;SDS011;3639;51.308;5.624;2023-07-09T11:22:05;3.63;;;2.78;;
7195;SDS011;3639;51.308;5.624;2023-07-09T11:29:47;5.20;;;2.92;;
7195;SDS011;3639;51.308;5.624;2023-07-09T11:32:21;4.28;;;2.70;;
7195;SDS011;3639;51.308;5.624;2023-07-09T11:34:47;4.43;;;2.92;;
7195;SDS011;3639;51.308;5.624;2023-07-09T11:37:14;5.80;;;2.88;;
7195;SDS011;3639;51.308;5.624;2023-07-09T11:42:24;5.05;;;3.00;;
7195;SDS011;3639;51.308;5.624;2023-07-09T11:44:49;3.85;;;2.30;;
7195;SDS011;3639;51.308;5.624;2023-07-09T11:47:23;3.70;;;2.85;;
7195;SDS011;3639;51.308;5.624;2023-07-09T11:49:54;6.53;;;3.10;;
7195;SDS011;3639;51.308;5.624;2023-07-09T11:52:30;5.28;;;3.08;;
7195;SDS011;3639;51.308;5.624;2023-07-09T11:57:59;5.03;;;2.83;;
7195;SDS011;3639;51.308;5.624;2023-07-09T12:00:47;3.70;;;2.63;;
7195;SDS011;3639;51.308;5.624;2023-07-09T12:03:26;3.90;;;2.63;;
7195;SDS011;3639;51.308;5.624;2023-07-09T12:05:55;5.75;;;3.58;;
7195;SDS011;3639;51.308;5.624;2023-07-09T12:08:29;4.95;;;2.95;;
7195;SDS011;3639;51.308;5.624;2023-07-09T12:10:59;5.65;;;2.85;;
7195;SDS011;3639;51.308;5.624;2023-07-09T12:13:25;5.93;;;3.05;;
7195;SDS011;3639;51.308;5.624;2023-07-09T12:15:51;4.75;;;3.25;;
7195;SDS011;3639;51.308;5.624;2023-07-09T12:18:17;4.82;;;3.50;;
7195;SDS011;3639;51.308;5.624;2023-07-09T12:20:49;5.15;;;2.90;;
7195;SDS011;3639;51.308;5.624;2023-07-09T12:23:35;4.18;;;3.00;;
7195;SDS011;3639;51.308;5.624;2023-07-09T12:26:02;7.65;;;3.25;;
7195;SDS011;3639;51.308;5.624;2023-07-09T12:28:29;5.20;;;3.05;;
7195;SDS011;3639;51.308;5.624;2023-07-09T12:30:55;4.40;;;3.20;;
7195;SDS011;3639;51.308;5.624;2023-07-09T12:33:23;3.85;;;2.83;;
7195;SDS011;3639;51.308;5.624;2023-07-09T12:35:53;6.25;;;3.60;;
7195;SDS011;3639;51.308;5.624;2023-07-09T12:38:23;6.07;;;3.00;;
7195;SDS011;3639;51.308;5.624;2023-07-09T12:40:51;4.88;;;3.08;;
7195;SDS011;3639;51.308;5.624;2023-07-09T12:43:19;10.73;;;3.97;;
7195;SDS011;3639;51.308;5.624;2023-07-09T12:45:50;5.97;;;3.60;;
7195;SDS011;3639;51.308;5.624;2023-07-09T12:48:16;4.97;;;3.15;;
7195;SDS011;3639;51.308;5.624;2023-07-09T12:50:47;4.22;;;3.22;;
7195;SDS011;3639;51.308;5.624;2023-07-09T12:53:16;5.35;;;3.85;;
7195;SDS011;3639;51.308;5.624;2023-07-09T12:55:46;5.00;;;3.30;;
7195;SDS011;3639;51.308;5.624;2023-07-09T12:58:36;7.28;;;3.72;;
7195;SDS011;3639;51.308;5.624;2023-07-09T13:01:06;5.78;;;3.75;;
7195;SDS011;3639;51.308;5.624;2023-07-09T13:03:38;5.70;;;3.22;;
7195;SDS011;3639;51.308;5.624;2023-07-09T13:06:23;5.80;;;3.65;;
7195;SDS011;3639;51.308;5.624;2023-07-09T13:09:18;4.88;;;3.53;;
7195;SDS011;3639;51.308;5.624;2023-07-09T13:11:49;6.05;;;3.65;;
7195;SDS011;3639;51.308;5.624;2023-07-09T13:14:16;7.40;;;3.90;;
7195;SDS011;3639;51.308;5.624;2023-07-09T13:16:45;6.35;;;4.00;;
7195;SDS011;3639;51.308;5.624;2023-07-09T13:19:11;5.55;;;4.25;;
7195;SDS011;3639;51.308;5.624;2023-07-09T13:21:37;6.78;;;5.28;;
7195;SDS011;3639;51.308;5.624;2023-07-09T13:24:14;11.73;;;5.75;;
7195;SDS011;3639;51.308;5.624;2023-07-09T13:26:49;6.72;;;5.10;;
7195;SDS011;3639;51.308;5.624;2023-07-09T13:29:15;7.80;;;6.20;;
7195;SDS011;3639;51.308;5.624;2023-07-09T13:31:43;10.07;;;7.35;;
7195;SDS011;3639;51.308;5.624;2023-07-09T13:36:47;10.82;;;8.10;;
7195;SDS011;3639;51.308;5.624;2023-07-09T13:39:13;11.60;;;8.25;;
7195;SDS011;3639;51.308;5.624;2023-07-09T13:41:40;13.60;;;9.20;;
7195;SDS011;3639;51.308;5.624;2023-07-09T13:44:13;12.35;;;9.35;;
7195;SDS011;3639;51.308;5.624;2023-07-09T13:46:41;14.70;;;9.95;;
7195;SDS011;3639;51.308;5.624;2023-07-09T13:49:08;14.68;;;8.63;;
7195;SDS011;3639;51.308;5.624;2023-07-09T13:51:35;13.07;;;8.32;;
7195;SDS011;3639;51.308;5.624;2023-07-09T13:54:01;7.22;;;4.90;;
7195;SDS011;3639;51.308;5.624;2023-07-09T13:56:28;11.65;;;5.38;;
7195;SDS011;3639;51.308;5.624;2023-07-09T13:58:54;16.33;;;9.35;;
7195;SDS011;3639;51.308;5.624;2023-07-09T14:01:23;18.35;;;13.10;;
7195;SDS011;3639;51.308;5.624;2023-07-09T14:03:49;22.23;;;13.93;;
7195;SDS011;3639;51.308;5.624;2023-07-09T14:06:25;19.83;;;14.07;;
7195;SDS011;3639;51.308;5.624;2023-07-09T14:08:51;19.63;;;14.25;;
7195;SDS011;3639;51.308;5.624;2023-07-09T14:11:16;20.83;;;13.02;;
7195;SDS011;3639;51.308;5.624;2023-07-09T14:13:42;20.63;;;12.63;;
7195;SDS011;3639;51.308;5.624;2023-07-09T14:16:10;20.65;;;11.85;;
7195;SDS011;3639;51.308;5.624;2023-07-09T14:18:36;16.08;;;11.43;;
7195;SDS011;3639;51.308;5.624;2023-07-09T14:21:17;11.90;;;9.63;;
7195;SDS011;3639;51.308;5.624;2023-07-09T14:23:47;14.65;;;10.50;;
7195;SDS011;3639;51.308;5.624;2023-07-09T14:26:12;12.93;;;9.70;;
7195;SDS011;3639;51.308;5.624;2023-07-09T14:28:38;13.27;;;9.20;;
7195;SDS011;3639;51.308;5.624;2023-07-09T14:31:04;11.68;;;8.43;;
7195;SDS011;3639;51.308;5.624;2023-07-09T14:33:48;10.77;;;7.85;;
7195;SDS011;3639;51.308;5.624;2023-07-09T14:36:13;9.57;;;6.97;;
7195;SDS011;3639;51.308;5.624;2023-07-09T14:38:39;10.18;;;7.55;;
7195;SDS011;3639;51.308;5.624;2023-07-09T14:41:08;9.38;;;7.95;;
7195;SDS011;3639;51.308;5.624;2023-07-09T14:43:50;13.15;;;7.28;;
7195;SDS011;3639;51.308;5.624;2023-07-09T14:46:17;10.55;;;6.60;;
7195;SDS011;3639;51.308;5.624;2023-07-09T14:48:43;7.57;;;6.00;;
7195;SDS011;3639;51.308;5.624;2023-07-09T14:51:12;6.43;;;5.38;;
7195;SDS011;3639;51.308;5.624;2023-07-09T14:53:40;7.93;;;6.32;;
7195;SDS011;3639;51.308;5.624;2023-07-09T14:56:06;7.82;;;5.65;;
7195;SDS011;3639;51.308;5.624;2023-07-09T14:58:32;10.88;;;5.80;;
7195;SDS011;3639;51.308;5.624;2023-07-09T15:00:57;10.27;;;6.20;;
7195;SDS011;3639;51.308;5.624;2023-07-09T15:03:24;8.70;;;6.55;;
7195;SDS011;3639;51.308;5.624;2023-07-09T15:05:50;5.78;;;4.70;;
7195;SDS011;3639;51.308;5.624;2023-07-09T15:08:19;9.90;;;5.70;;
7195;SDS011;3639;51.308;5.624;2023-07-09T15:10:47;6.55;;;5.00;;
7195;SDS011;3639;51.308;5.624;2023-07-09T15:13:30;6.55;;;5.22;;
7195;SDS011;3639;51.308;5.624;2023-07-09T15:15:58;8.07;;;5.72;;
7195;SDS011;3639;51.308;5.624;2023-07-09T15:18:25;6.53;;;4.97;;
7195;SDS011;3639;51.308;5.624;2023-07-09T15:20:57;8.55;;;5.55;;
7195;SDS011;3639;51.308;5.624;2023-07-09T15:23:24;8.27;;;5.30;;
7195;SDS011;3639;51.308;5.624;2023-07-09T15:25:50;6.90;;;4.70;;
7195;SDS011;3639;51.308;5.624;2023-07-09T15:28:16;7.43;;;5.20;;
7195;SDS011;3639;51.308;5.624;2023-07-09T15:30:42;6.47;;;5.00;;
7195;SDS011;3639;51.308;5.624;2023-07-09T15:33:12;9.35;;;5.65;;
7195;SDS011;3639;51.308;5.624;2023-07-09T15:35:40;6.80;;;4.93;;
7195;SDS011;3639;51.308;5.624;2023-07-09T15:38:25;8.25;;;5.40;;
7195;SDS011;3639;51.308;5.624;2023-07-09T15:40:53;10.30;;;5.28;;
7195;SDS011;3639;51.308;5.624;2023-07-09T15:43:18;8.75;;;5.55;;
7195;SDS011;3639;51.308;5.624;2023-07-09T15:45:45;6.95;;;5.10;;
7195;SDS011;3639;51.308;5.624;2023-07-09T15:50:50;8.30;;;5.72;;
7195;SDS011;3639;51.308;5.624;2023-07-09T15:53:16;7.55;;;5.13;;
7195;SDS011;3639;51.308;5.624;2023-07-09T15:55:42;6.70;;;4.85;;
7195;SDS011;3639;51.308;5.624;2023-07-09T15:58:07;8.20;;;5.28;;
7195;SDS011;3639;51.308;5.624;2023-07-09T16:00:40;9.10;;;4.55;;
7195;SDS011;3639;51.308;5.624;2023-07-09T16:03:08;9.65;;;5.88;;
7195;SDS011;3639;51.308;5.624;2023-07-09T16:05:34;7.07;;;5.13;;